Harvest, Alabama
Current Conditions -  °F | °C
As of 4:15 PM on Sunday 21 Dec 2014 (Local Time) from KMDQ Reporting Station
Overcast Overcast  
Wind Chill: 52°   Ceiling: 3200
Heat Index: 52°   Visibility: 10mi
Dew Point: 37°   Wind: 3mph
Humidity: 58%   Direction: 120°ESE
Pressure: 30.07"   Gusts: NA
Location:  34.86°N, 86.75°W
Report Text: KMDQ 212215Z AUTO 12003KT 10SM OVC032 11/03 A3007 RMK AO2
Loading
Personal Weather Stations






























Interactive Weather Map New forecast layout! Learn more

10-Day Weather Forecast

Advertisements
Track Severe Weather on mobile